LOWI/INN METAR and TAF weather

Enter ICAO airport designator
Station Type Date Time Source
LOWI METAR 2019/12/07 07:20 UTC NOAA

LOWI 070720Z VRB02KT 9999 FEW060 SCT070 BKN090 M01/M03 Q1018 NOSIG


Station Type Date Time Source
LOWI Decoded METAR 2019/12/07 07:20 UTC NOAA

Innsbruck-Flughafen, Austria (LOWI) 47-16N 011-21E 593M
Dec 07, 2019 - 02:20 AM EST / 2019.12.07 0720 UTC
Wind: Variable at 2 MPH (2 KT):0
Visibility: greater than 7 mile(s):0
Sky conditions: mostly cloudy
Temperature: 30 F (-1 C)
Dew Point: 26 F (-3 C)
Relative Humidity: 86%
Pressure (altimeter): 30.06 in. Hg (1018 hPa)
ob: LOWI 070720Z VRB02KT 9999 FEW060 SCT070 BKN090 M01/M03 Q1018 NOSIG
cycle: 7

Station Type Date Time Source
LOWI TAF 2019/12/07 06:21 UTC NOAA

TAF TAF LOWI 070515Z 0706/0806 VRB02KT 9999 SCT060 BKN080 TX06/0713Z TNM02/0806Z PROB30
TEMPO 0706/0708 -FZRA
TEMPO 0707/0720 27010G20KT PROB30
TEMPO 0800/0806 0800 BCFG SCT002

Example: see airport list